Fountain City, Indiana
Current Conditions -  °F | °C
As of 6:15 PM on Saturday 25 Oct 2014 (Local Time) from KVES Reporting Station
Clear Clear  
Wind Chill: 68°   Ceiling: Unl
Heat Index: 68°   Visibility: 10mi
Dew Point: 43°   Wind: 13mph
Humidity: 40%   Direction: 290°WNW
Pressure: 29.89"   Gusts: 18mph
Location:  39.96°N, 84.92°W
Report Text: KVES 252215Z AUTO 29011G16KT 10SM CLR 20/06 A2989 RMK AO2
Loading
Personal Weather Stations






























Interactive Weather Map
Tropical Storm Tracking
New forecast layout! Learn more

10-Day Weather Forecast

Advertisements
Track Severe Weather on mobile